Terminal Aerodrome Forecast
Issued by NWS

Home | Current Version | Previous Version | Text Only | Print | Product List | Glossary On
Versions: 1 2 3 4 5 6 7 8 9 10 11 12 13 14 15 16 17 18 19
000
FTUS44 KOUN 181914 AAA
TAFLAW
TAF AMD
KLAW 181914Z 1819/1918 17016G26KT P6SM SCT028
      TEMPO 1819/1821 BKN028
     FM190400 17014KT 5SM BR OVC008=

USA.gov is the U.S. government's official web portal to all federal, state and local government web resources and services.